createdAt,value
2023-05-08T00:01:17.509Z,97.35
2023-05-08T00:03:43.973Z,97.10
2023-05-08T00:06:10.424Z,97.30
2023-05-08T00:08:36.777Z,97.70
2023-05-08T00:11:03.157Z,97.21
2023-05-08T00:13:29.502Z,97.19
2023-05-08T00:15:55.931Z,97.21
2023-05-08T00:18:22.306Z,96.97
2023-05-08T00:20:48.816Z,97.13
2023-05-08T00:23:15.212Z,97.16
2023-05-08T00:25:41.586Z,97.08
2023-05-08T00:28:07.936Z,97.02
2023-05-08T00:30:34.368Z,96.98
2023-05-08T00:33:00.805Z,96.85
2023-05-08T00:35:27.191Z,96.85
2023-05-08T00:37:53.537Z,96.71
2023-05-08T00:40:19.893Z,96.83
2023-05-08T00:42:46.229Z,96.77
2023-05-08T00:45:12.760Z,96.63
2023-05-08T00:47:39.854Z,96.45
2023-05-08T00:50:07.207Z,96.28
2023-05-08T00:52:33.781Z,96.61
2023-05-08T00:55:03.143Z,96.75
2023-05-08T00:57:32.320Z,96.65
2023-05-08T01:00:00.699Z,96.79
2023-05-08T01:02:27.834Z,96.54
2023-05-08T01:04:55.726Z,96.87
2023-05-08T01:07:22.274Z,96.75
2023-05-08T01:09:49.063Z,96.65
2023-05-08T01:12:36.021Z,96.81
2023-05-08T01:15:17.471Z,96.76
2023-05-08T01:18:08.613Z,96.84
2023-05-08T01:20:55.848Z,96.54
2023-05-08T01:23:44.543Z,96.46
2023-05-08T01:26:29.468Z,96.32
2023-05-08T01:29:22.312Z,96.23
2023-05-08T01:32:10.455Z,96.27
2023-05-08T01:34:44.546Z,96.15
2023-05-08T01:37:17.048Z,96.02
2023-05-08T01:40:10.049Z,96.71
2023-05-08T01:42:48.110Z,96.42
2023-05-08T01:45:21.439Z,96.47
2023-05-08T01:47:57.056Z,96.42
2023-05-08T01:50:34.098Z,96.15
2023-05-08T01:53:13.391Z,96.28
2023-05-08T01:55:42.697Z,96.41
2023-05-08T01:58:11.507Z,96.12
2023-05-08T02:00:40.851Z,95.97
2023-05-08T02:03:09.328Z,95.80
2023-05-08T02:05:38.544Z,96.28
2023-05-08T02:08:08.293Z,96.27
2023-05-08T02:10:37.113Z,96.05
2023-05-08T02:13:04.978Z,96.13
2023-05-08T02:15:35.978Z,95.87
2023-05-08T02:18:05.589Z,96.13
2023-05-08T02:20:32.941Z,96.34
2023-05-08T02:23:00.296Z,96.39
2023-05-08T02:25:28.201Z,96.43
2023-05-08T02:27:55.378Z,96.38
2023-05-08T02:30:25.309Z,96.84
2023-05-08T02:32:53.652Z,96.71
2023-05-08T02:35:20.479Z,96.39
2023-05-08T02:37:51.580Z,96.63
2023-05-08T02:40:18.830Z,96.72
2023-05-08T02:42:46.793Z,96.50
2023-05-08T02:45:13.962Z,96.64
2023-05-08T02:48:07.693Z,96.75
2023-05-08T02:51:05.422Z,96.77
2023-05-08T02:53:35.974Z,96.88
2023-05-08T02:56:18.754Z,96.55
2023-05-08T02:59:07.218Z,96.45
2023-05-08T03:01:41.883Z,96.65
2023-05-08T03:04:10.888Z,96.57
2023-05-08T03:06:41.576Z,96.69
2023-05-08T03:09:15.100Z,96.67
2023-05-08T03:11:44.852Z,96.50
2023-05-08T03:14:14.889Z,96.38
2023-05-08T03:16:43.035Z,96.65
2023-05-08T03:19:21.795Z,96.22
2023-05-08T03:21:51.801Z,96.46
2023-05-08T03:24:19.699Z,96.38
2023-05-08T03:26:46.305Z,96.12
2023-05-08T03:29:13.678Z,96.20
2023-05-08T03:31:42.384Z,96.09
2023-05-08T03:34:12.205Z,95.76
2023-05-08T03:36:38.847Z,96.03
2023-05-08T03:39:05.703Z,95.83
2023-05-08T03:41:32.185Z,95.66
2023-05-08T03:43:58.964Z,95.59
2023-05-08T03:46:26.190Z,95.54
2023-05-08T03:48:54.249Z,95.49
2023-05-08T03:51:21.751Z,95.89
2023-05-08T03:53:48.118Z,95.93
2023-05-08T03:56:14.565Z,95.77
2023-05-08T03:59:18.401Z,95.80
2023-05-08T04:01:59.970Z,95.56
2023-05-08T04:04:40.995Z,95.60
2023-05-08T04:07:15.761Z,95.68
2023-05-08T04:10:09.373Z,95.95
2023-05-08T04:12:40.436Z,95.70
2023-05-08T04:15:13.686Z,95.83
2023-05-08T04:17:50.903Z,96.06
2023-05-08T04:20:20.951Z,96.02
2023-05-08T04:22:50.426Z,96.43
2023-05-08T04:25:18.915Z,96.67
2023-05-08T04:27:46.076Z,96.87
2023-05-08T04:30:13.319Z,96.51
2023-05-08T04:32:42.337Z,97.37
2023-05-08T04:35:11.576Z,96.99
2023-05-08T04:37:38.093Z,96.97
2023-05-08T04:40:05.249Z,97.06
2023-05-08T04:42:32.558Z,96.86
2023-05-08T04:44:58.893Z,97.00
2023-05-08T04:47:25.369Z,97.12
2023-05-08T04:49:51.802Z,97.39
2023-05-08T04:52:18.268Z,97.84
2023-05-08T04:54:44.695Z,97.95
2023-05-08T04:57:11.302Z,97.83
2023-05-08T04:59:37.705Z,97.75
2023-05-08T05:02:08.046Z,97.61
2023-05-08T05:04:36.473Z,97.54
2023-05-08T05:07:03.437Z,97.43
2023-05-08T05:09:29.981Z,97.45
2023-05-08T05:11:58.042Z,97.74
2023-05-08T05:14:24.690Z,97.72
2023-05-08T05:16:51.055Z,97.46
2023-05-08T05:19:17.508Z,97.59
2023-05-08T05:21:43.858Z,97.85
2023-05-08T05:24:10.395Z,98.04
2023-05-08T05:26:37.263Z,98.09
2023-05-08T05:29:03.752Z,98.48
2023-05-08T05:31:30.402Z,98.76
2023-05-08T05:33:56.808Z,98.97
2023-05-08T05:36:23.235Z,98.91
2023-05-08T05:38:49.593Z,99.07
2023-05-08T05:41:16.272Z,99.05
2023-05-08T05:43:42.622Z,99.20
2023-05-08T05:46:10.090Z,99.34
2023-05-08T05:48:36.743Z,99.78
2023-05-08T05:51:03.603Z,99.54
2023-05-08T05:53:29.965Z,99.50
2023-05-08T05:55:56.308Z,99.68
2023-05-08T05:58:22.696Z,99.54
2023-05-08T06:00:49.197Z,100.00
2023-05-08T06:03:15.848Z,99.58
2023-05-08T06:05:42.460Z,99.36
2023-05-08T06:08:09.005Z,98.88
2023-05-08T06:10:35.519Z,98.55
2023-05-08T06:13:02.248Z,99.08
2023-05-08T06:15:28.754Z,99.06
2023-05-08T06:17:55.358Z,99.47
2023-05-08T06:20:21.813Z,99.37
2023-05-08T06:22:48.167Z,99.03
2023-05-08T06:25:15.125Z,99.54
2023-05-08T06:27:48.734Z,99.59
2023-05-08T06:30:18.216Z,99.13
2023-05-08T06:32:44.640Z,98.77
2023-05-08T06:35:12.263Z,98.64
2023-05-08T06:37:38.820Z,98.83
2023-05-08T06:40:12.126Z,99.89
2023-05-08T06:42:40.206Z,99.32
2023-05-08T06:45:07.825Z,99.38
2023-05-08T06:47:34.245Z,99.21
2023-05-08T06:50:01.125Z,99.20
2023-05-08T06:52:27.509Z,98.72
2023-05-08T06:54:53.899Z,98.87
2023-05-08T06:57:20.256Z,98.76
2023-05-08T06:59:46.719Z,98.34
2023-05-08T07:02:13.122Z,98.27
2023-05-08T07:04:39.562Z,98.68
2023-05-08T07:07:06.842Z,99.08
2023-05-08T07:09:33.338Z,98.86
2023-05-08T07:11:59.696Z,98.84
2023-05-08T07:14:27.286Z,99.04
2023-05-08T07:16:53.638Z,99.31
2023-05-08T07:19:22.393Z,99.07
2023-05-08T07:21:49.134Z,98.99
2023-05-08T07:24:15.573Z,98.85
2023-05-08T07:26:42.420Z,99.25
2023-05-08T07:29:08.888Z,98.50
2023-05-08T07:31:35.370Z,99.14
2023-05-08T07:34:02.424Z,98.28
2023-05-08T07:36:28.892Z,99.04
2023-05-08T07:38:55.314Z,98.40
2023-05-08T07:41:21.741Z,98.59
2023-05-08T07:43:48.108Z,99.99
2023-05-08T07:46:18.540Z,100.00
2023-05-08T07:48:44.938Z,99.88
2023-05-08T07:51:11.421Z,99.80
2023-05-08T07:53:37.828Z,99.06
2023-05-08T07:56:05.142Z,98.94
2023-05-08T07:58:31.501Z,99.80
2023-05-08T08:00:57.859Z,99.46
2023-05-08T08:03:24.378Z,99.20
2023-05-08T08:05:50.992Z,99.21
2023-05-08T08:08:17.632Z,99.50
2023-05-08T08:10:44.008Z,99.78
2023-05-08T08:13:10.404Z,100.00
2023-05-08T08:15:36.818Z,99.80
2023-05-08T08:18:03.218Z,99.34
2023-05-08T08:20:29.615Z,100.00
2023-05-08T08:22:56.029Z,100.00
2023-05-08T08:25:22.517Z,100.00
2023-05-08T08:27:48.878Z,100.00
2023-05-08T08:30:17.639Z,100.00
2023-05-08T08:32:45.827Z,100.00
2023-05-08T08:35:12.737Z,100.00
2023-05-08T08:37:39.567Z,100.00
2023-05-08T08:40:06.736Z,100.00
2023-05-08T08:42:33.897Z,100.00
2023-05-08T08:45:01.241Z,100.00
2023-05-08T08:47:29.658Z,100.00
2023-05-08T08:50:00.885Z,100.00
2023-05-08T08:53:01.246Z,100.00
2023-05-08T08:55:29.818Z,100.00
2023-05-08T08:58:15.089Z,100.00
2023-05-08T09:00:41.917Z,100.00
2023-05-08T09:03:08.636Z,100.00
2023-05-08T09:05:35.437Z,100.00
2023-05-08T09:08:02.546Z,100.00
2023-05-08T09:10:29.050Z,100.00
2023-05-08T09:12:55.542Z,100.00
2023-05-08T09:15:22.195Z,100.00
2023-05-08T09:17:48.624Z,100.00
2023-05-08T09:20:16.199Z,100.00
2023-05-08T09:22:43.559Z,100.00
2023-05-08T09:25:10.674Z,98.80
2023-05-08T09:27:37.273Z,100.00
2023-05-08T09:30:08.470Z,100.00
2023-05-08T09:32:36.958Z,99.63
2023-05-08T09:35:05.141Z,99.68
2023-05-08T09:37:31.985Z,99.09
2023-05-08T09:40:18.575Z,98.14
2023-05-08T09:42:46.225Z,97.62
2023-05-08T09:45:27.181Z,96.96
2023-05-08T09:47:53.893Z,97.17
2023-05-08T09:50:20.425Z,96.84
2023-05-08T09:52:50.746Z,96.16
2023-05-08T09:55:18.117Z,96.53
2023-05-08T09:57:59.205Z,97.52
2023-05-08T10:00:29.404Z,98.52
2023-05-08T10:03:03.042Z,98.01
2023-05-08T10:05:32.184Z,97.09
2023-05-08T10:08:00.422Z,97.84
2023-05-08T10:10:30.191Z,98.41
2023-05-08T10:12:58.137Z,98.35
2023-05-08T10:15:33.667Z,97.56
2023-05-08T10:18:08.697Z,97.28
2023-05-08T10:20:39.573Z,97.47
2023-05-08T10:23:11.605Z,98.74
2023-05-08T10:25:44.681Z,97.49
2023-05-08T10:28:31.979Z,97.83
2023-05-08T10:31:03.767Z,97.87
2023-05-08T10:33:31.766Z,98.62
2023-05-08T10:35:59.737Z,98.08
2023-05-08T10:38:27.281Z,98.04
2023-05-08T10:40:57.871Z,97.43
2023-05-08T10:43:29.181Z,99.37
2023-05-08T10:45:57.680Z,99.52
2023-05-08T10:48:39.103Z,98.22
2023-05-08T10:51:35.763Z,97.31
2023-05-08T10:54:10.857Z,98.08
2023-05-08T10:56:38.177Z,96.46
2023-05-08T10:59:05.928Z,94.78
2023-05-08T11:01:32.326Z,93.84
2023-05-08T11:03:58.975Z,94.23
2023-05-08T11:06:59.101Z,95.25
2023-05-08T11:09:30.842Z,92.96
2023-05-08T11:12:21.448Z,93.12
2023-05-08T11:15:09.725Z,93.54
2023-05-08T11:17:36.146Z,93.44
2023-05-08T11:20:05.849Z,93.48
2023-05-08T11:22:36.894Z,93.12
2023-05-08T11:25:08.541Z,93.62
2023-05-08T11:27:50.380Z,93.63
2023-05-08T11:30:37.286Z,93.75
2023-05-08T11:33:03.994Z,92.62
2023-05-08T11:36:05.390Z,92.99
2023-05-08T11:38:34.215Z,93.52
2023-05-08T11:41:04.828Z,94.28
2023-05-08T11:43:34.273Z,93.08
2023-05-08T11:46:05.792Z,92.57
2023-05-08T11:48:33.344Z,93.66
2023-05-08T11:51:00.424Z,93.32
2023-05-08T11:53:27.672Z,91.87
2023-05-08T11:55:54.490Z,93.30
2023-05-08T11:58:21.588Z,91.61
2023-05-08T12:00:48.784Z,91.49
2023-05-08T12:03:17.661Z,90.09
2023-05-08T12:05:44.915Z,90.82
2023-05-08T12:08:12.816Z,91.71
2023-05-08T12:10:46.927Z,92.30
2023-05-08T12:13:28.165Z,91.67
2023-05-08T12:15:59.734Z,91.13
2023-05-08T12:18:28.682Z,91.03
2023-05-08T12:21:00.315Z,91.17
2023-05-08T12:23:28.795Z,92.67
2023-05-08T12:25:58.609Z,92.61
2023-05-08T12:28:25.113Z,90.57
2023-05-08T12:30:51.693Z,90.25
2023-05-08T12:33:18.769Z,89.27
2023-05-08T12:35:45.616Z,90.42
2023-05-08T12:38:14.308Z,88.83
2023-05-08T12:40:42.996Z,88.08
2023-05-08T12:43:09.840Z,87.86
2023-05-08T12:45:42.754Z,87.96
2023-05-08T12:48:11.217Z,88.61
2023-05-08T12:50:40.513Z,87.84
2023-05-08T12:53:15.236Z,87.30
2023-05-08T12:55:54.257Z,88.13
2023-05-08T12:58:25.091Z,85.99
2023-05-08T13:00:52.959Z,87.19
2023-05-08T13:03:25.672Z,86.45
2023-05-08T13:05:53.559Z,86.28
2023-05-08T13:08:20.205Z,84.66
2023-05-08T13:10:47.898Z,85.45
2023-05-08T13:13:16.366Z,83.62
2023-05-08T13:15:43.426Z,85.47
2023-05-08T13:18:10.285Z,85.48
2023-05-08T13:20:37.291Z,88.15
2023-05-08T13:23:04.646Z,86.32
2023-05-08T13:25:31.628Z,85.21
2023-05-08T13:27:58.719Z,85.70
2023-05-08T13:30:25.523Z,85.28
2023-05-08T13:32:52.908Z,83.94
2023-05-08T13:35:20.430Z,83.70
2023-05-08T13:37:47.224Z,86.59
2023-05-08T13:40:15.128Z,86.59
2023-05-08T13:42:42.029Z,83.11
2023-05-08T13:45:10.768Z,83.48
2023-05-08T13:47:37.385Z,86.02
2023-05-08T13:50:03.977Z,86.03
2023-05-08T13:52:30.469Z,84.20
2023-05-08T13:54:58.099Z,85.17
2023-05-08T13:57:24.833Z,85.56
2023-05-08T13:59:51.225Z,86.23
2023-05-08T14:02:17.829Z,85.46
2023-05-08T14:04:44.444Z,85.23
2023-05-08T14:07:10.833Z,86.20
2023-05-08T14:09:37.228Z,86.28
2023-05-08T14:12:03.713Z,86.83
2023-05-08T14:14:31.675Z,87.16
2023-05-08T14:16:58.853Z,87.69
2023-05-08T14:19:25.317Z,89.02
2023-05-08T14:21:52.122Z,86.63
2023-05-08T14:24:18.530Z,84.99
2023-05-08T14:26:45.126Z,84.65
2023-05-08T14:29:11.625Z,86.29
2023-05-08T14:31:38.143Z,84.85
2023-05-08T14:34:04.698Z,85.97
2023-05-08T14:36:31.324Z,86.24
2023-05-08T14:38:57.701Z,85.93
2023-05-08T14:41:28.258Z,87.16
2023-05-08T14:43:54.750Z,86.01
2023-05-08T14:46:21.178Z,85.23
2023-05-08T14:48:47.649Z,85.28
2023-05-08T14:51:14.221Z,85.97
2023-05-08T14:53:41.564Z,86.29
2023-05-08T14:56:08.504Z,86.21
2023-05-08T14:58:34.996Z,86.74
2023-05-08T15:01:01.431Z,86.09
2023-05-08T15:03:27.991Z,83.80
2023-05-08T15:05:54.707Z,85.41
2023-05-08T15:08:21.202Z,86.22
2023-05-08T15:10:47.642Z,87.21
2023-05-08T15:13:14.211Z,87.06
2023-05-08T15:15:41.052Z,86.95
2023-05-08T15:18:07.580Z,87.10
2023-05-08T15:20:34.171Z,87.44
2023-05-08T15:23:00.627Z,88.05
2023-05-08T15:25:26.978Z,88.79
2023-05-08T15:27:53.404Z,87.62
2023-05-08T15:30:20.437Z,88.15
2023-05-08T15:32:47.123Z,88.73
2023-05-08T15:35:13.778Z,88.95
2023-05-08T15:37:40.849Z,87.22
2023-05-08T15:40:08.198Z,86.86
2023-05-08T15:42:35.022Z,86.69
2023-05-08T15:45:02.067Z,86.68
2023-05-08T15:47:28.438Z,85.77
2023-05-08T15:49:55.244Z,85.93
2023-05-08T15:52:22.672Z,85.42
2023-05-08T15:54:50.111Z,86.50
2023-05-08T15:57:16.889Z,86.91
2023-05-08T15:59:43.549Z,87.07
2023-05-08T16:02:11.209Z,88.27
2023-05-08T16:04:37.637Z,87.77
2023-05-08T16:07:04.419Z,89.09
2023-05-08T16:09:30.938Z,88.50
2023-05-08T16:11:57.488Z,86.98
2023-05-08T16:14:30.033Z,85.69
2023-05-08T16:16:56.445Z,87.69
2023-05-08T16:19:23.934Z,86.73
2023-05-08T16:21:50.336Z,86.76
2023-05-08T16:24:16.701Z,87.41
2023-05-08T16:26:43.060Z,87.19
2023-05-08T16:29:09.440Z,87.46
2023-05-08T16:31:36.051Z,87.08
2023-05-08T16:34:02.432Z,87.15
2023-05-08T16:36:29.005Z,87.32
2023-05-08T16:38:55.367Z,87.10
2023-05-08T16:41:22.843Z,86.96
2023-05-08T16:43:49.239Z,86.83
2023-05-08T16:46:16.414Z,87.80
2023-05-08T16:48:43.864Z,88.96
2023-05-08T16:51:10.247Z,87.91
2023-05-08T16:53:36.590Z,88.08
2023-05-08T16:56:02.971Z,88.36
2023-05-08T16:58:29.343Z,87.90
2023-05-08T17:00:55.748Z,88.30
2023-05-08T17:03:22.323Z,88.71
2023-05-08T17:05:49.059Z,87.72
2023-05-08T17:08:15.506Z,87.49
2023-05-08T17:10:42.159Z,87.69
2023-05-08T17:13:08.624Z,87.35
2023-05-08T17:15:34.996Z,88.36
2023-05-08T17:18:01.407Z,87.95
2023-05-08T17:20:27.932Z,87.56
2023-05-08T17:22:54.305Z,86.54
2023-05-08T17:25:22.398Z,87.29
2023-05-08T17:27:48.953Z,88.47
2023-05-08T17:30:16.910Z,87.99
2023-05-08T17:32:43.459Z,87.31
2023-05-08T17:35:10.335Z,87.72
2023-05-08T17:37:36.921Z,88.07
2023-05-08T17:40:03.773Z,88.54
2023-05-08T17:42:30.265Z,88.41
2023-05-08T17:44:56.853Z,89.00
2023-05-08T17:47:23.380Z,88.77
2023-05-08T17:49:49.859Z,88.96
2023-05-08T17:52:26.289Z,89.25
2023-05-08T17:54:52.957Z,89.47
2023-05-08T17:57:19.297Z,89.47
2023-05-08T17:59:45.707Z,90.10
2023-05-08T18:02:12.109Z,90.01
2023-05-08T18:04:38.598Z,90.35
2023-05-08T18:07:04.995Z,90.71
2023-05-08T18:09:31.504Z,90.91
2023-05-08T18:12:02.190Z,89.60
2023-05-08T18:14:32.766Z,90.13
2023-05-08T18:16:59.842Z,91.08
2023-05-08T18:19:26.582Z,91.41
2023-05-08T18:21:52.970Z,91.50
2023-05-08T18:24:19.323Z,91.58
2023-05-08T18:26:47.416Z,91.57
2023-05-08T18:29:13.788Z,91.51
2023-05-08T18:31:40.235Z,91.54
2023-05-08T18:34:06.725Z,91.98
2023-05-08T18:36:33.108Z,91.47
2023-05-08T18:39:00.065Z,91.76
2023-05-08T18:41:26.497Z,91.89
2023-05-08T18:43:52.872Z,92.11
2023-05-08T18:46:19.255Z,91.99
2023-05-08T18:48:46.596Z,91.95
2023-05-08T18:51:12.966Z,92.59
2023-05-08T18:53:40.610Z,92.65
2023-05-08T18:56:07.241Z,92.62
2023-05-08T18:58:33.660Z,92.94
2023-05-08T19:01:00.590Z,93.00
2023-05-08T19:03:27.650Z,92.71
2023-05-08T19:05:55.030Z,93.00
2023-05-08T19:08:21.570Z,92.95
2023-05-08T19:10:48.003Z,93.00
2023-05-08T19:13:14.379Z,92.61
2023-05-08T19:15:40.937Z,92.62
2023-05-08T19:18:07.551Z,92.81
2023-05-08T19:20:33.942Z,93.03
2023-05-08T19:23:00.514Z,93.00
2023-05-08T19:25:26.928Z,92.95
2023-05-08T19:27:53.286Z,92.88
2023-05-08T19:30:19.657Z,93.09
2023-05-08T19:32:46.046Z,93.20
2023-05-08T19:35:12.447Z,93.33
2023-05-08T19:37:38.901Z,92.67
2023-05-08T19:40:06.354Z,93.32
2023-05-08T19:42:32.872Z,93.67
2023-05-08T19:45:00.037Z,93.42
2023-05-08T19:47:26.453Z,93.76
2023-05-08T19:49:52.827Z,93.81
2023-05-08T19:52:19.949Z,93.83
2023-05-08T19:54:47.098Z,94.07
2023-05-08T19:57:13.645Z,93.69
2023-05-08T19:59:40.053Z,94.65
2023-05-08T20:02:06.944Z,94.61
2023-05-08T20:04:39.963Z,94.64
2023-05-08T20:07:18.603Z,94.53
2023-05-08T20:09:45.015Z,94.70
2023-05-08T20:12:11.487Z,94.34
2023-05-08T20:14:37.863Z,94.56
2023-05-08T20:17:04.393Z,94.58
2023-05-08T20:19:30.809Z,94.90
2023-05-08T20:21:57.224Z,95.34
2023-05-08T20:24:23.759Z,96.09
2023-05-08T20:26:54.219Z,96.26
2023-05-08T20:29:20.957Z,96.45
2023-05-08T20:31:47.432Z,96.47
2023-05-08T20:34:13.872Z,96.92
2023-05-08T20:36:40.346Z,97.02
2023-05-08T20:39:06.883Z,96.74
2023-05-08T20:41:33.238Z,96.98
2023-05-08T20:43:59.579Z,96.73
2023-05-08T20:46:26.043Z,96.62
2023-05-08T20:48:52.432Z,96.52
2023-05-08T20:51:18.772Z,96.77
2023-05-08T20:53:45.195Z,96.81
2023-05-08T20:56:15.672Z,96.52
2023-05-08T20:58:43.576Z,96.50
2023-05-08T21:01:11.156Z,96.29
2023-05-08T21:03:40.186Z,96.14
2023-05-08T21:06:06.695Z,95.93
2023-05-08T21:08:35.151Z,95.91
2023-05-08T21:11:01.847Z,95.35
2023-05-08T21:13:28.349Z,95.01
2023-05-08T21:15:54.714Z,95.22
2023-05-08T21:18:21.079Z,95.35
2023-05-08T21:20:50.535Z,95.66
2023-05-08T21:23:18.272Z,95.27
2023-05-08T21:25:48.764Z,95.34
2023-05-08T21:28:16.341Z,95.15
2023-05-08T21:30:43.726Z,95.50
2023-05-08T21:33:13.811Z,95.29
2023-05-08T21:35:41.531Z,95.44
2023-05-08T21:38:08.295Z,95.68
2023-05-08T21:40:35.249Z,95.55
2023-05-08T21:43:01.638Z,95.58
2023-05-08T21:45:31.529Z,95.96
2023-05-08T21:47:58.789Z,96.23
2023-05-08T21:50:27.999Z,96.26
2023-05-08T21:52:56.357Z,96.20
2023-05-08T21:55:23.672Z,96.14
2023-05-08T21:57:50.209Z,96.06
2023-05-08T22:00:16.970Z,95.92
2023-05-08T22:02:43.386Z,95.68
2023-05-08T22:05:09.953Z,95.96
2023-05-08T22:07:36.305Z,95.71
2023-05-08T22:10:02.871Z,95.71
2023-05-08T22:12:29.279Z,96.18
2023-05-08T22:14:55.708Z,96.49
2023-05-08T22:17:22.066Z,96.34
2023-05-08T22:19:48.408Z,96.11
2023-05-08T22:22:14.780Z,95.89
2023-05-08T22:24:41.159Z,96.04
2023-05-08T22:27:07.496Z,96.45
2023-05-08T22:29:33.875Z,96.41
2023-05-08T22:32:00.280Z,96.26
2023-05-08T22:34:26.645Z,96.42
2023-05-08T22:36:52.975Z,96.80
2023-05-08T22:39:19.611Z,96.34
2023-05-08T22:41:46.192Z,96.62
2023-05-08T22:44:12.651Z,96.40
2023-05-08T22:46:39.341Z,96.19
2023-05-08T22:49:06.032Z,96.49
2023-05-08T22:51:32.859Z,96.09
2023-05-08T22:53:59.197Z,96.15
2023-05-08T22:56:25.625Z,96.59
2023-05-08T22:58:54.582Z,96.37
2023-05-08T23:01:22.153Z,96.10
2023-05-08T23:03:52.122Z,96.43
2023-05-08T23:06:18.470Z,96.56
2023-05-08T23:08:44.862Z,96.46
2023-05-08T23:11:11.182Z,96.88
2023-05-08T23:13:37.506Z,96.72
2023-05-08T23:16:04.206Z,96.83
2023-05-08T23:18:30.612Z,96.90
2023-05-08T23:20:56.961Z,97.08
2023-05-08T23:23:23.326Z,96.78
2023-05-08T23:25:49.747Z,97.24
2023-05-08T23:28:16.414Z,97.14
2023-05-08T23:30:42.762Z,97.02
2023-05-08T23:33:09.274Z,97.23
2023-05-08T23:35:35.622Z,96.97
2023-05-08T23:38:01.977Z,97.36
2023-05-08T23:40:28.369Z,97.15
2023-05-08T23:42:54.744Z,96.79
2023-05-08T23:45:21.117Z,97.43
2023-05-08T23:47:47.519Z,97.08
2023-05-08T23:50:13.901Z,96.92
2023-05-08T23:52:41.564Z,96.86
2023-05-08T23:55:09.274Z,97.03
2023-05-08T23:57:36.029Z,97.17
